메인 페이지
METAR-TAF:

METAR-TAF

공항 :

Northwest Arkansas Regional Airport

Fayetteville, 아칸소, 미국

위도: 36-16-55N, 경도: 094-18-25W, 고도: 392m

현재 날씨관측

예보는 56분 전, 10:53시(UTC)에 발표되었습니다.
4kt
온도 14°C
습도 100%
기압 1014 hPa
시정: 14.5km
맑음

METAR: KXNA 261053Z 19004KT 9SM CLR 14/14 A2994 RMK AO2 SLP129 T01440139

시각: 06:49 (11:49 UTC)

예보

예보는 6 시간 13분 전, 05:36시(UTC)에 발표되었습니다.
예보 대상 시간: 26일 06시부터 27일 06시까지 (UTC)
4kt
시정: 10km
맑음
일시적
26일 10시부터 26일 14시까지 (UTC)
고도 500ft 상공 구름 보통
26일 1400시부터 (UTC)
남남서7kt
시정: 10km
고도 1500ft 상공 구름 보통
26일 1700시부터 (UTC)
12kt, 순간 최대 풍속 20kt
시정: 10km
맑음
27일 0000시부터 (UTC)
11kt
시정: 10km
맑음

TAF: KXNA 260536Z 2606/2706 19004KT P6SM SKC TEMPO 2610/2614 SCT005 FM261400 20007KT P6SM SCT015 FM261700 19012G20KT P6SM SKC FM270000 18011KT P6SM SKC

4,000개 이상의 공항 관측 자료 및 예보 (METAR 및 TAF 보고).

지도상에서 검색 가능한 기상관측소가 노란 점과 빨간 점으로 표시되어 있습니다.

기상관측소 명을 보려면 표시 위로 마우스를 이동하세요.

날씨 관측과 예보를 보려면 클릭하세요.

지도 변경 : 확대하려면 엑스 표시가 있는 녹색 버튼, 축소하려면 빼기 표시가 있는 녹색 버튼, 다음 페이지의 지도를 보려면 녹색 화살표를 클릭하세요.


METAR-TAF: